sensor_id;sensor_type;location;lat;lon;timestamp;P1;durP1;ratioP1;P2;durP2;ratioP2
25868;SDS011;13688;53.154;18.136;2023-02-20T00:00:43;8.58;;;3.02;;
25868;SDS011;13688;53.154;18.136;2023-02-20T00:06:07;8.50;;;2.70;;
25868;SDS011;13688;53.154;18.136;2023-02-20T00:11:32;8.63;;;2.83;;
25868;SDS011;13688;53.154;18.136;2023-02-20T00:16:56;8.40;;;2.92;;
25868;SDS011;13688;53.154;18.136;2023-02-20T00:22:21;6.70;;;2.60;;
25868;SDS011;13688;53.154;18.136;2023-02-20T00:27:46;13.22;;;2.77;;
25868;SDS011;13688;53.154;18.136;2023-02-20T00:33:09;8.05;;;2.62;;
25868;SDS011;13688;53.154;18.136;2023-02-20T00:38:33;11.05;;;3.25;;
25868;SDS011;13688;53.154;18.136;2023-02-20T00:43:58;10.75;;;3.12;;
25868;SDS011;13688;53.154;18.136;2023-02-20T00:49:23;10.65;;;2.90;;
25868;SDS011;13688;53.154;18.136;2023-02-20T00:54:47;10.65;;;2.70;;
25868;SDS011;13688;53.154;18.136;2023-02-20T01:00:17;13.30;;;2.70;;
25868;SDS011;13688;53.154;18.136;2023-02-20T01:05:46;11.25;;;2.77;;
25868;SDS011;13688;53.154;18.136;2023-02-20T01:11:10;9.53;;;2.50;;
25868;SDS011;13688;53.154;18.136;2023-02-20T01:16:35;5.30;;;2.20;;
25868;SDS011;13688;53.154;18.136;2023-02-20T01:22:02;6.90;;;2.02;;
25868;SDS011;13688;53.154;18.136;2023-02-20T01:27:27;8.95;;;2.05;;
25868;SDS011;13688;53.154;18.136;2023-02-20T01:32:51;11.35;;;2.37;;
25868;SDS011;13688;53.154;18.136;2023-02-20T01:38:16;6.03;;;1.87;;
25868;SDS011;13688;53.154;18.136;2023-02-20T01:43:40;7.90;;;2.10;;
25868;SDS011;13688;53.154;18.136;2023-02-20T01:49:06;8.20;;;2.77;;
25868;SDS011;13688;53.154;18.136;2023-02-20T01:54:34;7.28;;;2.30;;
25868;SDS011;13688;53.154;18.136;2023-02-20T02:00:07;9.50;;;2.05;;
25868;SDS011;13688;53.154;18.136;2023-02-20T02:05:32;7.22;;;2.20;;
25868;SDS011;13688;53.154;18.136;2023-02-20T02:11:05;3.50;;;1.47;;
25868;SDS011;13688;53.154;18.136;2023-02-20T02:16:51;7.67;;;2.25;;
25868;SDS011;13688;53.154;18.136;2023-02-20T02:46:26;6.55;;;2.47;;
25868;SDS011;13688;53.154;18.136;2023-02-20T02:51:55;6.85;;;2.27;;
25868;SDS011;13688;53.154;18.136;2023-02-20T02:57:24;5.47;;;2.10;;
25868;SDS011;13688;53.154;18.136;2023-02-20T03:02:54;8.68;;;2.33;;
25868;SDS011;13688;53.154;18.136;2023-02-20T03:08:41;11.78;;;2.77;;
25868;SDS011;13688;53.154;18.136;2023-02-20T03:14:25;9.20;;;2.20;;
25868;SDS011;13688;53.154;18.136;2023-02-20T03:20:14;7.50;;;2.30;;
25868;SDS011;13688;53.154;18.136;2023-02-20T03:25:45;8.90;;;2.33;;
25868;SDS011;13688;53.154;18.136;2023-02-20T03:31:26;7.12;;;2.30;;
25868;SDS011;13688;53.154;18.136;2023-02-20T03:36:53;10.60;;;2.67;;
25868;SDS011;13688;53.154;18.136;2023-02-20T03:42:38;7.92;;;2.10;;
25868;SDS011;13688;53.154;18.136;2023-02-20T03:48:29;9.20;;;1.90;;
25868;SDS011;13688;53.154;18.136;2023-02-20T03:53:55;11.08;;;2.22;;
25868;SDS011;13688;53.154;18.136;2023-02-20T03:59:25;8.48;;;2.20;;
25868;SDS011;13688;53.154;18.136;2023-02-20T04:05:03;9.75;;;2.75;;
25868;SDS011;13688;53.154;18.136;2023-02-20T04:10:28;9.90;;;2.60;;
25868;SDS011;13688;53.154;18.136;2023-02-20T04:15:57;8.28;;;2.50;;
25868;SDS011;13688;53.154;18.136;2023-02-20T04:21:25;10.70;;;2.75;;
25868;SDS011;13688;53.154;18.136;2023-02-20T04:26:59;9.88;;;2.80;;
25868;SDS011;13688;53.154;18.136;2023-02-20T04:32:23;14.78;;;2.33;;
25868;SDS011;13688;53.154;18.136;2023-02-20T04:37:48;7.72;;;2.77;;
25868;SDS011;13688;53.154;18.136;2023-02-20T04:43:12;6.83;;;2.60;;
25868;SDS011;13688;53.154;18.136;2023-02-20T04:48:35;5.90;;;2.67;;
25868;SDS011;13688;53.154;18.136;2023-02-20T04:54:00;8.85;;;2.70;;
25868;SDS011;13688;53.154;18.136;2023-02-20T04:59:26;13.98;;;3.15;;
25868;SDS011;13688;53.154;18.136;2023-02-20T05:04:51;8.80;;;2.20;;
25868;SDS011;13688;53.154;18.136;2023-02-20T05:10:18;6.67;;;2.17;;
25868;SDS011;13688;53.154;18.136;2023-02-20T05:15:43;7.83;;;2.55;;
25868;SDS011;13688;53.154;18.136;2023-02-20T05:21:07;13.53;;;2.60;;
25868;SDS011;13688;53.154;18.136;2023-02-20T05:26:51;6.40;;;2.45;;
25868;SDS011;13688;53.154;18.136;2023-02-20T05:32:17;7.97;;;2.40;;
25868;SDS011;13688;53.154;18.136;2023-02-20T05:37:46;7.62;;;2.27;;
25868;SDS011;13688;53.154;18.136;2023-02-20T05:43:09;8.78;;;2.30;;
25868;SDS011;13688;53.154;18.136;2023-02-20T05:48:33;7.33;;;2.02;;
25868;SDS011;13688;53.154;18.136;2023-02-20T05:54:02;6.55;;;1.95;;
25868;SDS011;13688;53.154;18.136;2023-02-20T05:59:26;10.50;;;2.95;;
25868;SDS011;13688;53.154;18.136;2023-02-20T06:04:50;8.43;;;2.33;;
25868;SDS011;13688;53.154;18.136;2023-02-20T06:10:14;7.50;;;2.12;;
25868;SDS011;13688;53.154;18.136;2023-02-20T06:15:40;8.58;;;2.47;;
25868;SDS011;13688;53.154;18.136;2023-02-20T06:21:08;7.37;;;2.40;;
25868;SDS011;13688;53.154;18.136;2023-02-20T06:26:38;12.13;;;3.20;;
25868;SDS011;13688;53.154;18.136;2023-02-20T06:32:00;8.03;;;2.90;;
25868;SDS011;13688;53.154;18.136;2023-02-20T06:37:25;10.58;;;3.70;;
25868;SDS011;13688;53.154;18.136;2023-02-20T06:42:50;10.18;;;3.55;;
25868;SDS011;13688;53.154;18.136;2023-02-20T06:48:15;10.78;;;3.85;;
25868;SDS011;13688;53.154;18.136;2023-02-20T06:53:39;10.38;;;3.65;;
25868;SDS011;13688;53.154;18.136;2023-02-20T06:59:05;10.78;;;3.90;;
25868;SDS011;13688;53.154;18.136;2023-02-20T07:04:29;7.33;;;3.98;;
25868;SDS011;13688;53.154;18.136;2023-02-20T07:09:56;11.55;;;4.62;;
25868;SDS011;13688;53.154;18.136;2023-02-20T07:15:21;10.63;;;4.35;;
25868;SDS011;13688;53.154;18.136;2023-02-20T07:20:46;7.42;;;3.95;;
25868;SDS011;13688;53.154;18.136;2023-02-20T07:26:20;11.35;;;4.83;;
25868;SDS011;13688;53.154;18.136;2023-02-20T07:31:45;9.10;;;4.78;;
25868;SDS011;13688;53.154;18.136;2023-02-20T07:37:08;10.38;;;4.72;;
25868;SDS011;13688;53.154;18.136;2023-02-20T07:42:33;10.38;;;4.75;;
25868;SDS011;13688;53.154;18.136;2023-02-20T07:47:58;13.00;;;4.62;;
25868;SDS011;13688;53.154;18.136;2023-02-20T07:53:21;14.23;;;5.78;;
25868;SDS011;13688;53.154;18.136;2023-02-20T07:58:44;9.93;;;4.83;;
25868;SDS011;13688;53.154;18.136;2023-02-20T08:04:09;10.32;;;5.33;;
25868;SDS011;13688;53.154;18.136;2023-02-20T08:09:33;11.38;;;5.47;;
25868;SDS011;13688;53.154;18.136;2023-02-20T08:14:56;12.55;;;5.50;;
25868;SDS011;13688;53.154;18.136;2023-02-20T08:20:19;11.38;;;6.20;;
25868;SDS011;13688;53.154;18.136;2023-02-20T08:25:42;10.15;;;6.17;;
25868;SDS011;13688;53.154;18.136;2023-02-20T08:31:05;14.30;;;5.97;;
25868;SDS011;13688;53.154;18.136;2023-02-20T08:36:31;15.08;;;6.92;;
25868;SDS011;13688;53.154;18.136;2023-02-20T08:41:55;10.78;;;6.67;;
25868;SDS011;13688;53.154;18.136;2023-02-20T08:47:19;13.18;;;6.65;;
25868;SDS011;13688;53.154;18.136;2023-02-20T08:52:42;13.08;;;6.60;;
25868;SDS011;13688;53.154;18.136;2023-02-20T08:58:05;11.15;;;7.15;;
25868;SDS011;13688;53.154;18.136;2023-02-20T09:03:30;11.85;;;7.17;;
25868;SDS011;13688;53.154;18.136;2023-02-20T09:08:55;10.30;;;7.20;;
25868;SDS011;13688;53.154;18.136;2023-02-20T09:14:20;11.73;;;7.05;;
25868;SDS011;13688;53.154;18.136;2023-02-20T09:19:45;11.75;;;7.28;;
25868;SDS011;13688;53.154;18.136;2023-02-20T09:25:11;8.58;;;5.72;;
25868;SDS011;13688;53.154;18.136;2023-02-20T09:30:34;10.90;;;6.55;;
25868;SDS011;13688;53.154;18.136;2023-02-20T09:35:59;10.98;;;6.15;;
25868;SDS011;13688;53.154;18.136;2023-02-20T09:47:23;11.07;;;6.67;;
25868;SDS011;13688;53.154;18.136;2023-02-20T09:53:05;13.85;;;7.50;;
25868;SDS011;13688;53.154;18.136;2023-02-20T09:58:43;11.10;;;7.33;;
25868;SDS011;13688;53.154;18.136;2023-02-20T10:04:18;9.75;;;6.58;;
25868;SDS011;13688;53.154;18.136;2023-02-20T10:09:47;10.60;;;6.70;;
25868;SDS011;13688;53.154;18.136;2023-02-20T10:27:52;13.72;;;8.05;;
25868;SDS011;13688;53.154;18.136;2023-02-20T10:38:59;9.78;;;7.67;;
25868;SDS011;13688;53.154;18.136;2023-02-20T10:55:48;15.47;;;9.63;;
25868;SDS011;13688;53.154;18.136;2023-02-20T11:01:25;16.20;;;9.53;;
25868;SDS011;13688;53.154;18.136;2023-02-20T11:06:55;15.03;;;9.90;;
25868;SDS011;13688;53.154;18.136;2023-02-20T11:12:28;17.67;;;11.40;;
25868;SDS011;13688;53.154;18.136;2023-02-20T11:17:55;18.00;;;9.97;;
25868;SDS011;13688;53.154;18.136;2023-02-20T11:34:34;16.03;;;11.17;;
25868;SDS011;13688;53.154;18.136;2023-02-20T11:39:56;18.90;;;12.57;;
25868;SDS011;13688;53.154;18.136;2023-02-20T11:45:24;19.37;;;12.07;;
25868;SDS011;13688;53.154;18.136;2023-02-20T11:50:48;17.83;;;10.97;;
25868;SDS011;13688;53.154;18.136;2023-02-20T11:56:15;16.80;;;11.60;;
25868;SDS011;13688;53.154;18.136;2023-02-20T12:01:38;17.50;;;11.70;;
25868;SDS011;13688;53.154;18.136;2023-02-20T12:07:25;17.67;;;11.70;;
25868;SDS011;13688;53.154;18.136;2023-02-20T12:12:51;15.97;;;11.30;;
25868;SDS011;13688;53.154;18.136;2023-02-20T12:30:17;15.87;;;9.87;;
25868;SDS011;13688;53.154;18.136;2023-02-20T12:41:47;15.38;;;9.48;;
25868;SDS011;13688;53.154;18.136;2023-02-20T12:47:42;14.65;;;9.70;;
25868;SDS011;13688;53.154;18.136;2023-02-20T12:53:05;14.80;;;10.00;;
25868;SDS011;13688;53.154;18.136;2023-02-20T12:58:56;14.30;;;9.90;;
25868;SDS011;13688;53.154;18.136;2023-02-20T13:04:42;15.30;;;10.70;;
25868;SDS011;13688;53.154;18.136;2023-02-20T13:10:15;14.30;;;9.70;;
25868;SDS011;13688;53.154;18.136;2023-02-20T13:15:55;15.30;;;10.00;;
25868;SDS011;13688;53.154;18.136;2023-02-20T13:21:27;13.33;;;8.63;;
25868;SDS011;13688;53.154;18.136;2023-02-20T13:26:56;15.77;;;9.17;;
25868;SDS011;13688;53.154;18.136;2023-02-20T13:32:21;15.53;;;10.10;;
25868;SDS011;13688;53.154;18.136;2023-02-20T13:37:51;13.93;;;9.30;;
25868;SDS011;13688;53.154;18.136;2023-02-20T13:48:50;14.23;;;9.40;;
25868;SDS011;13688;53.154;18.136;2023-02-20T13:54:21;13.90;;;9.13;;
25868;SDS011;13688;53.154;18.136;2023-02-20T13:59:42;14.07;;;9.07;;
25868;SDS011;13688;53.154;18.136;2023-02-20T14:05:15;13.47;;;8.77;;
25868;SDS011;13688;53.154;18.136;2023-02-20T14:10:37;12.60;;;8.17;;
25868;SDS011;13688;53.154;18.136;2023-02-20T14:16:00;11.33;;;8.17;;
25868;SDS011;13688;53.154;18.136;2023-02-20T14:21:45;14.70;;;8.27;;
25868;SDS011;13688;53.154;18.136;2023-02-20T14:27:29;13.37;;;8.10;;
25868;SDS011;13688;53.154;18.136;2023-02-20T14:32:53;13.57;;;7.83;;
25868;SDS011;13688;53.154;18.136;2023-02-20T14:38:32;10.10;;;6.70;;
25868;SDS011;13688;53.154;18.136;2023-02-20T14:44:02;9.85;;;7.20;;
25868;SDS011;13688;53.154;18.136;2023-02-20T14:49:28;9.40;;;6.50;;
25868;SDS011;13688;53.154;18.136;2023-02-20T14:54:56;8.83;;;6.17;;
25868;SDS011;13688;53.154;18.136;2023-02-20T15:00:23;9.73;;;6.20;;
25868;SDS011;13688;53.154;18.136;2023-02-20T15:05:48;8.10;;;5.58;;
25868;SDS011;13688;53.154;18.136;2023-02-20T15:11:14;11.15;;;5.42;;
25868;SDS011;13688;53.154;18.136;2023-02-20T15:16:37;7.33;;;4.50;;
25868;SDS011;13688;53.154;18.136;2023-02-20T15:22:24;7.53;;;4.90;;
25868;SDS011;13688;53.154;18.136;2023-02-20T15:33:39;11.10;;;5.25;;
25868;SDS011;13688;53.154;18.136;2023-02-20T15:39:00;6.97;;;4.12;;
25868;SDS011;13688;53.154;18.136;2023-02-20T15:44:25;10.98;;;4.67;;
25868;SDS011;13688;53.154;18.136;2023-02-20T15:49:48;6.27;;;4.23;;
25868;SDS011;13688;53.154;18.136;2023-02-20T15:55:18;6.70;;;4.65;;
25868;SDS011;13688;53.154;18.136;2023-02-20T16:00:42;6.83;;;4.20;;
25868;SDS011;13688;53.154;18.136;2023-02-20T16:06:05;5.90;;;4.17;;
25868;SDS011;13688;53.154;18.136;2023-02-20T16:11:33;5.62;;;3.85;;
25868;SDS011;13688;53.154;18.136;2023-02-20T16:16:59;7.13;;;4.80;;
25868;SDS011;13688;53.154;18.136;2023-02-20T16:22:24;5.90;;;3.80;;
25868;SDS011;13688;53.154;18.136;2023-02-20T16:27:47;6.58;;;3.80;;
25868;SDS011;13688;53.154;18.136;2023-02-20T16:33:12;5.65;;;3.33;;
25868;SDS011;13688;53.154;18.136;2023-02-20T16:38:36;5.30;;;3.50;;
25868;SDS011;13688;53.154;18.136;2023-02-20T16:43:58;6.05;;;3.90;;
25868;SDS011;13688;53.154;18.136;2023-02-20T16:49:48;5.20;;;3.73;;
25868;SDS011;13688;53.154;18.136;2023-02-20T17:00:47;7.67;;;3.83;;
25868;SDS011;13688;53.154;18.136;2023-02-20T17:06:09;5.37;;;3.45;;
25868;SDS011;13688;53.154;18.136;2023-02-20T17:11:35;5.25;;;3.40;;
25868;SDS011;13688;53.154;18.136;2023-02-20T17:16:57;4.22;;;2.95;;
25868;SDS011;13688;53.154;18.136;2023-02-20T17:22:20;5.07;;;3.00;;
25868;SDS011;13688;53.154;18.136;2023-02-20T17:27:57;4.27;;;3.13;;
25868;SDS011;13688;53.154;18.136;2023-02-20T17:33:22;4.80;;;3.03;;
25868;SDS011;13688;53.154;18.136;2023-02-20T17:38:45;4.50;;;3.20;;
25868;SDS011;13688;53.154;18.136;2023-02-20T17:44:07;5.00;;;3.20;;
25868;SDS011;13688;53.154;18.136;2023-02-20T17:49:40;3.07;;;2.70;;
25868;SDS011;13688;53.154;18.136;2023-02-20T17:55:05;4.00;;;2.93;;
25868;SDS011;13688;53.154;18.136;2023-02-20T18:00:36;4.13;;;2.60;;
25868;SDS011;13688;53.154;18.136;2023-02-20T18:05:58;3.97;;;2.43;;
25868;SDS011;13688;53.154;18.136;2023-02-20T18:11:21;5.33;;;2.53;;
25868;SDS011;13688;53.154;18.136;2023-02-20T18:16:45;4.23;;;3.13;;
25868;SDS011;13688;53.154;18.136;2023-02-20T18:22:07;6.25;;;2.90;;
25868;SDS011;13688;53.154;18.136;2023-02-20T18:27:30;4.80;;;3.15;;
25868;SDS011;13688;53.154;18.136;2023-02-20T18:32:52;4.57;;;2.90;;
25868;SDS011;13688;53.154;18.136;2023-02-20T18:38:15;4.83;;;3.15;;
25868;SDS011;13688;53.154;18.136;2023-02-20T18:43:38;4.15;;;2.52;;
25868;SDS011;13688;53.154;18.136;2023-02-20T18:49:01;3.40;;;2.40;;
25868;SDS011;13688;53.154;18.136;2023-02-20T18:54:24;4.00;;;2.50;;
25868;SDS011;13688;53.154;18.136;2023-02-20T18:59:47;3.00;;;2.22;;
25868;SDS011;13688;53.154;18.136;2023-02-20T19:05:11;3.50;;;2.50;;
25868;SDS011;13688;53.154;18.136;2023-02-20T19:10:34;4.53;;;3.20;;
25868;SDS011;13688;53.154;18.136;2023-02-20T19:15:56;3.65;;;2.20;;
25868;SDS011;13688;53.154;18.136;2023-02-20T19:21:21;3.10;;;2.10;;
25868;SDS011;13688;53.154;18.136;2023-02-20T19:26:43;2.17;;;1.60;;
25868;SDS011;13688;53.154;18.136;2023-02-20T19:32:06;2.70;;;2.00;;
25868;SDS011;13688;53.154;18.136;2023-02-20T19:37:29;2.43;;;1.70;;
25868;SDS011;13688;53.154;18.136;2023-02-20T19:42:52;3.67;;;1.65;;
25868;SDS011;13688;53.154;18.136;2023-02-20T19:48:15;1.65;;;1.37;;
25868;SDS011;13688;53.154;18.136;2023-02-20T19:53:37;2.22;;;1.45;;
25868;SDS011;13688;53.154;18.136;2023-02-20T19:59:03;3.22;;;1.50;;
25868;SDS011;13688;53.154;18.136;2023-02-20T20:04:27;2.72;;;1.47;;
25868;SDS011;13688;53.154;18.136;2023-02-20T20:09:49;2.40;;;1.40;;
25868;SDS011;13688;53.154;18.136;2023-02-20T20:15:17;2.47;;;1.30;;
25868;SDS011;13688;53.154;18.136;2023-02-20T20:20:40;1.55;;;0.98;;
25868;SDS011;13688;53.154;18.136;2023-02-20T20:26:03;2.17;;;1.12;;
25868;SDS011;13688;53.154;18.136;2023-02-20T20:31:27;2.77;;;1.17;;
25868;SDS011;13688;53.154;18.136;2023-02-20T20:36:51;3.63;;;1.30;;
25868;SDS011;13688;53.154;18.136;2023-02-20T20:42:14;2.55;;;1.62;;
25868;SDS011;13688;53.154;18.136;2023-02-20T20:47:36;3.17;;;1.80;;
25868;SDS011;13688;53.154;18.136;2023-02-20T20:52:59;2.20;;;1.40;;
25868;SDS011;13688;53.154;18.136;2023-02-20T20:58:21;1.52;;;1.20;;
25868;SDS011;13688;53.154;18.136;2023-02-20T21:03:44;2.10;;;1.00;;
25868;SDS011;13688;53.154;18.136;2023-02-20T21:09:07;3.20;;;2.05;;
25868;SDS011;13688;53.154;18.136;2023-02-20T21:14:29;1.35;;;1.10;;
25868;SDS011;13688;53.154;18.136;2023-02-20T21:19:52;2.15;;;1.10;;
25868;SDS011;13688;53.154;18.136;2023-02-20T21:25:20;1.77;;;1.03;;
25868;SDS011;13688;53.154;18.136;2023-02-20T21:30:40;2.08;;;1.00;;
25868;SDS011;13688;53.154;18.136;2023-02-20T21:36:03;1.90;;;0.90;;
25868;SDS011;13688;53.154;18.136;2023-02-20T21:41:26;3.27;;;1.10;;
25868;SDS011;13688;53.154;18.136;2023-02-20T21:47:08;2.27;;;0.93;;
25868;SDS011;13688;53.154;18.136;2023-02-20T21:52:31;1.90;;;1.03;;
25868;SDS011;13688;53.154;18.136;2023-02-20T21:57:54;1.55;;;0.80;;
25868;SDS011;13688;53.154;18.136;2023-02-20T22:03:16;4.92;;;1.22;;
25868;SDS011;13688;53.154;18.136;2023-02-20T22:08:38;3.17;;;1.20;;
25868;SDS011;13688;53.154;18.136;2023-02-20T22:14:19;5.77;;;1.60;;
25868;SDS011;13688;53.154;18.136;2023-02-20T22:19:59;3.03;;;1.07;;
25868;SDS011;13688;53.154;18.136;2023-02-20T22:25:40;4.50;;;1.33;;
25868;SDS011;13688;53.154;18.136;2023-02-20T22:31:20;2.17;;;1.07;;
25868;SDS011;13688;53.154;18.136;2023-02-20T22:37:00;2.40;;;1.20;;
25868;SDS011;13688;53.154;18.136;2023-02-20T22:42:41;3.27;;;1.20;;
25868;SDS011;13688;53.154;18.136;2023-02-20T22:48:21;1.90;;;0.90;;
25868;SDS011;13688;53.154;18.136;2023-02-20T22:54:02;4.67;;;1.27;;
25868;SDS011;13688;53.154;18.136;2023-02-20T22:59:42;6.20;;;1.50;;
25868;SDS011;13688;53.154;18.136;2023-02-20T23:05:22;4.80;;;1.13;;
25868;SDS011;13688;53.154;18.136;2023-02-20T23:11:04;4.93;;;1.53;;
25868;SDS011;13688;53.154;18.136;2023-02-20T23:16:45;3.27;;;0.93;;
25868;SDS011;13688;53.154;18.136;2023-02-20T23:22:27;5.90;;;1.53;;
25868;SDS011;13688;53.154;18.136;2023-02-20T23:28:07;4.43;;;1.10;;
25868;SDS011;13688;53.154;18.136;2023-02-20T23:33:47;4.73;;;1.13;;
25868;SDS011;13688;53.154;18.136;2023-02-20T23:39:27;7.07;;;1.60;;
25868;SDS011;13688;53.154;18.136;2023-02-20T23:45:08;5.97;;;1.10;;
25868;SDS011;13688;53.154;18.136;2023-02-20T23:56:22;3.92;;;1.12;;
